Time;durP1;ratioP1;P1;durP2;ratioP2;P2;SDS_P1;SDS_P2;PMS_P1;PMS_P2;Temp;Humidity;BMP_temperature;BMP_pressure;BME280_temperature;BME280_humidity;BME280_pressure;Samples;Min_cycle;Max_cycle;Signal;HPM_P1;HPM_P2
2021/11/20 00:00:54;;;;;;;50.70;27.37;;;;;;;;;;5012133;28;20415;-50
2021/11/20 00:03:20;;;;;;;61.00;26.23;;;;;;;;;;5012384;28;20905;-51
2021/11/20 00:05:48;;;;;;;50.40;25.73;;;;;;;;;;5012004;28;20400;-51
2021/11/20 00:08:14;;;;;;;51.90;26.33;;;;;;;;;;5012115;28;20405;-55
2021/11/20 00:10:42;;;;;;;52.13;26.87;;;;;;;;;;5011959;28;20962;-50
2021/11/20 00:13:09;;;;;;;52.90;27.30;;;;;;;;;;5012173;28;20502;-51
2021/11/20 00:15:37;;;;;;;52.90;27.57;;;;;;;;;;5011906;28;20399;-50
2021/11/20 00:18:04;;;;;;;47.33;25.07;;;;;;;;;;5012132;28;20451;-51
2021/11/20 00:20:31;;;;;;;50.13;24.77;;;;;;;;;;5011790;28;20439;-50
2021/11/20 00:22:58;;;;;;;53.97;26.80;;;;;;;;;;5011936;28;20891;-51
2021/11/20 00:25:24;;;;;;;57.63;26.00;;;;;;;;;;5011737;28;20891;-51
2021/11/20 00:27:53;;;;;;;46.70;25.50;;;;;;;;;;5012045;28;20412;-51
2021/11/20 00:30:22;;;;;;;40.63;23.70;;;;;;;;;;5011893;28;20418;-51
2021/11/20 00:33:02;;;;;;;44.60;25.93;;;;;;;;;;5012039;28;20545;-51
2021/11/20 00:35:33;;;;;;;50.43;27.27;;;;;;;;;;5011656;28;20407;-50
2021/11/20 00:37:59;;;;;;;43.73;25.20;;;;;;;;;;5011908;28;20486;-51
2021/11/20 00:40:45;;;;;;;45.83;24.90;;;;;;;;;;5011808;28;20428;-51
2021/11/20 00:43:12;;;;;;;47.90;24.20;;;;;;;;;;5011629;28;20831;-50
2021/11/20 00:45:38;;;;;;;46.13;24.90;;;;;;;;;;5011486;28;20411;-52
2021/11/20 00:51:12;;;;;;;45.93;27.00;;;;;;;;;;4994186;28;20477;-50
2021/11/20 00:53:38;;;;;;;41.87;25.03;;;;;;;;;;5011686;28;20404;-50
2021/11/20 00:56:06;;;;;;;44.47;23.33;;;;;;;;;;5011365;28;20450;-50
2021/11/20 00:58:32;;;;;;;44.80;23.57;;;;;;;;;;5011860;28;20453;-51
2021/11/20 01:00:59;;;;;;;46.23;24.50;;;;;;;;;;5015543;28;20423;-50
2021/11/20 01:03:25;;;;;;;44.90;25.70;;;;;;;;;;5015454;28;20400;-50
2021/11/20 01:05:52;;;;;;;41.20;22.80;;;;;;;;;;5015192;28;20423;-50
2021/11/20 01:08:20;;;;;;;43.30;22.30;;;;;;;;;;5015399;28;20399;-51
2021/11/20 01:10:47;;;;;;;38.60;24.13;;;;;;;;;;5015134;28;20446;-52
2021/11/20 01:13:14;;;;;;;39.27;23.60;;;;;;;;;;5015264;28;20408;-50
2021/11/20 01:15:42;;;;;;;39.63;23.30;;;;;;;;;;5014874;28;20430;-54
2021/11/20 01:18:09;;;;;;;39.70;24.43;;;;;;;;;;5015246;28;20442;-52
2021/11/20 01:20:36;;;;;;;50.93;25.00;;;;;;;;;;5014922;28;20455;-51
2021/11/20 01:23:02;;;;;;;45.40;24.83;;;;;;;;;;5014908;28;20867;-51
2021/11/20 01:25:28;;;;;;;35.20;22.90;;;;;;;;;;5014861;28;20957;-51
2021/11/20 01:27:55;;;;;;;44.80;23.10;;;;;;;;;;5015005;28;20439;-50
2021/11/20 01:30:21;;;;;;;46.20;25.50;;;;;;;;;;5014883;28;20427;-54
2021/11/20 01:32:47;;;;;;;40.80;22.50;;;;;;;;;;5014820;28;20439;-51
2021/11/20 01:35:13;;;;;;;42.33;24.00;;;;;;;;;;5014678;28;20404;-51
2021/11/20 01:37:39;;;;;;;40.63;23.20;;;;;;;;;;5014651;28;20446;-51
2021/11/20 01:40:07;;;;;;;40.33;23.47;;;;;;;;;;5014802;28;20419;-50
2021/11/20 01:42:33;;;;;;;45.77;23.73;;;;;;;;;;5014685;28;20444;-51
2021/11/20 01:45:02;;;;;;;38.70;23.27;;;;;;;;;;5014441;28;20441;-51
2021/11/20 01:47:33;;;;;;;38.00;23.43;;;;;;;;;;5014599;28;20809;-51
2021/11/20 01:50:08;;;;;;;44.67;26.20;;;;;;;;;;5014591;28;20432;-51
2021/11/20 01:52:52;;;;;;;44.80;24.07;;;;;;;;;;5014471;28;20411;-50
2021/11/20 01:55:26;;;;;;;36.07;21.87;;;;;;;;;;5014466;28;20410;-51
2021/11/20 01:57:59;;;;;;;39.17;22.70;;;;;;;;;;5014330;28;20573;-50
2021/11/20 02:00:37;;;;;;;37.03;22.40;;;;;;;;;;5014275;28;20520;-50
2021/11/20 02:03:09;;;;;;;42.93;22.47;;;;;;;;;;5013671;28;20766;-50
2021/11/20 02:05:38;;;;;;;43.00;24.50;;;;;;;;;;5013521;28;20404;-50
2021/11/20 02:08:13;;;;;;;44.40;25.37;;;;;;;;;;4996910;28;20853;-51
2021/11/20 02:10:41;;;;;;;46.47;23.03;;;;;;;;;;4996661;28;20432;-50
2021/11/20 02:13:10;;;;;;;42.23;22.87;;;;;;;;;;5013940;28;20407;-50
2021/11/20 02:15:36;;;;;;;37.87;21.93;;;;;;;;;;5013992;28;20458;-50
2021/11/20 02:18:03;;;;;;;41.57;23.13;;;;;;;;;;5013936;28;20454;-51
2021/11/20 02:20:39;;;;;;;43.63;23.40;;;;;;;;;;5013878;28;20522;-50
2021/11/20 02:23:06;;;;;;;41.43;23.23;;;;;;;;;;5013855;28;20395;-50
2021/11/20 02:25:32;;;;;;;40.83;23.57;;;;;;;;;;5013663;28;20399;-50
2021/11/20 02:27:58;;;;;;;43.43;24.27;;;;;;;;;;5013834;28;20490;-51
2021/11/20 02:30:30;;;;;;;43.63;25.17;;;;;;;;;;5013884;28;20423;-50
2021/11/20 02:32:56;;;;;;;38.57;22.70;;;;;;;;;;5013866;28;20797;-51
2021/11/20 02:35:28;;;;;;;39.70;22.40;;;;;;;;;;5013806;28;20406;-51
2021/11/20 02:37:54;;;;;;;39.50;23.50;;;;;;;;;;5013473;28;20461;-51
2021/11/20 02:40:20;;;;;;;34.70;21.07;;;;;;;;;;5013616;28;20828;-51
2021/11/20 02:42:46;;;;;;;47.93;24.00;;;;;;;;;;5013578;28;20896;-53
2021/11/20 02:45:20;;;;;;;40.03;23.00;;;;;;;;;;5013272;28;20407;-50
2021/11/20 02:47:47;;;;;;;41.93;23.90;;;;;;;;;;5013468;28;20483;-51
2021/11/20 02:50:13;;;;;;;35.47;22.70;;;;;;;;;;5013339;28;20535;-51
2021/11/20 02:52:39;;;;;;;42.43;22.83;;;;;;;;;;5013296;28;20403;-51
2021/11/20 02:55:07;;;;;;;35.00;23.07;;;;;;;;;;5013151;28;20403;-51
2021/11/20 02:57:35;;;;;;;40.93;22.47;;;;;;;;;;5013201;28;20992;-53
2021/11/20 03:00:02;;;;;;;39.87;21.50;;;;;;;;;;5013169;28;20982;-51
2021/11/20 03:02:27;;;;;;;35.77;21.53;;;;;;;;;;5013322;28;20399;-51
2021/11/20 03:04:54;;;;;;;41.63;23.60;;;;;;;;;;5012837;28;20933;-51
2021/11/20 03:10:23;;;;;;;38.17;23.33;;;;;;;;;;5013052;28;20438;-50
2021/11/20 03:12:50;;;;;;;40.07;23.60;;;;;;;;;;5012907;28;20439;-51
2021/11/20 03:15:16;;;;;;;41.17;22.50;;;;;;;;;;5012724;28;20402;-51
2021/11/20 03:17:43;;;;;;;36.70;22.73;;;;;;;;;;5012864;28;20468;-50
2021/11/20 03:20:11;;;;;;;38.80;21.17;;;;;;;;;;5012678;28;20444;-51
2021/11/20 03:22:40;;;;;;;37.67;21.93;;;;;;;;;;5012326;28;20438;-51
2021/11/20 03:25:06;;;;;;;35.63;21.00;;;;;;;;;;5012629;28;20513;-50
2021/11/20 03:27:35;;;;;;;34.67;23.10;;;;;;;;;;5012710;28;20415;-50
2021/11/20 03:30:01;;;;;;;33.93;20.77;;;;;;;;;;5012677;28;20435;-50
2021/11/20 03:32:27;;;;;;;36.60;21.47;;;;;;;;;;5012624;28;20494;-52
2021/11/20 03:34:53;;;;;;;33.50;21.30;;;;;;;;;;5012366;28;20966;-53
2021/11/20 03:37:22;;;;;;;34.90;21.17;;;;;;;;;;5012530;28;20454;-54
2021/11/20 03:39:48;;;;;;;34.47;21.00;;;;;;;;;;5012470;28;20420;-52
2021/11/20 03:42:14;;;;;;;34.67;21.30;;;;;;;;;;5012569;28;20461;-53
2021/11/20 03:44:41;;;;;;;36.03;21.60;;;;;;;;;;5012168;28;20403;-53
2021/11/20 03:47:07;;;;;;;38.10;22.77;;;;;;;;;;5012669;28;20415;-53
2021/11/20 03:49:33;;;;;;;34.30;20.13;;;;;;;;;;5012288;28;20403;-53
2021/11/20 03:51:59;;;;;;;39.17;22.57;;;;;;;;;;5012496;28;20897;-53
2021/11/20 03:54:26;;;;;;;35.93;21.40;;;;;;;;;;5012183;28;20408;-53
2021/11/20 03:56:52;;;;;;;33.73;19.30;;;;;;;;;;5012167;28;20964;-53
2021/11/20 03:59:18;;;;;;;35.37;20.90;;;;;;;;;;5012214;28;20407;-53
2021/11/20 04:01:44;;;;;;;36.57;22.17;;;;;;;;;;5012330;28;20395;-53
2021/11/20 04:04:10;;;;;;;36.70;20.20;;;;;;;;;;5012133;28;20840;-53
2021/11/20 04:06:36;;;;;;;34.23;21.53;;;;;;;;;;5012046;28;20507;-53
2021/11/20 04:09:02;;;;;;;36.10;21.53;;;;;;;;;;5012063;28;20399;-53
2021/11/20 04:11:30;;;;;;;32.90;20.93;;;;;;;;;;5012143;28;20517;-53
2021/11/20 04:13:56;;;;;;;38.33;21.33;;;;;;;;;;5012075;28;20487;-53
2021/11/20 04:16:24;;;;;;;37.77;20.47;;;;;;;;;;5011820;28;20454;-53
2021/11/20 04:18:50;;;;;;;40.77;20.70;;;;;;;;;;5011977;28;20410;-53
2021/11/20 04:21:16;;;;;;;41.53;21.50;;;;;;;;;;5018341;28;20443;-54
2021/11/20 04:23:45;;;;;;;32.77;19.70;;;;;;;;;;5020669;28;20418;-54
2021/11/20 04:26:11;;;;;;;34.57;20.67;;;;;;;;;;5020602;28;20887;-53
2021/11/20 04:28:37;;;;;;;37.43;19.67;;;;;;;;;;5020809;28;20912;-53
2021/11/20 04:31:03;;;;;;;32.03;19.00;;;;;;;;;;5020021;28;20423;-53
2021/11/20 04:33:30;;;;;;;29.83;19.37;;;;;;;;;;5020115;28;20498;-53
2021/11/20 04:35:56;;;;;;;36.97;20.40;;;;;;;;;;5024049;28;20498;-53
2021/11/20 04:38:23;;;;;;;36.10;19.17;;;;;;;;;;5024020;28;20403;-53
2021/11/20 04:40:49;;;;;;;31.70;18.37;;;;;;;;;;5024312;28;20422;-53
2021/11/20 04:43:15;;;;;;;30.73;18.97;;;;;;;;;;5024501;28;20492;-53
2021/11/20 04:45:41;;;;;;;32.90;19.23;;;;;;;;;;5024489;28;20399;-53
2021/11/20 04:48:08;;;;;;;32.47;18.27;;;;;;;;;;5024464;28;20439;-54
2021/11/20 04:50:34;;;;;;;34.53;19.23;;;;;;;;;;5024876;28;20954;-53
2021/11/20 04:53:00;;;;;;;31.40;19.77;;;;;;;;;;5025688;28;20470;-53
2021/11/20 04:55:26;;;;;;;29.97;18.90;;;;;;;;;;5024841;28;20463;-53
2021/11/20 04:57:52;;;;;;;31.43;18.50;;;;;;;;;;5024548;28;20486;-53
2021/11/20 05:00:30;;;;;;;36.50;20.33;;;;;;;;;;5023534;28;20419;-53
2021/11/20 05:02:57;;;;;;;29.93;18.77;;;;;;;;;;5023473;28;20897;-53
2021/11/20 05:05:23;;;;;;;30.23;18.20;;;;;;;;;;5023308;28;20399;-53
2021/11/20 05:07:49;;;;;;;28.70;17.00;;;;;;;;;;5023901;28;20437;-54
2021/11/20 05:10:15;;;;;;;30.60;17.37;;;;;;;;;;5023899;28;20437;-53
2021/11/20 05:12:42;;;;;;;29.57;16.93;;;;;;;;;;5023648;28;20414;-53
2021/11/20 05:15:10;;;;;;;27.27;16.63;;;;;;;;;;5023412;28;20441;-53
2021/11/20 05:17:36;;;;;;;26.17;17.67;;;;;;;;;;5023178;28;20942;-52
2021/11/20 05:20:02;;;;;;;32.00;17.57;;;;;;;;;;5023286;28;20645;-54
2021/11/20 05:22:28;;;;;;;29.73;16.60;;;;;;;;;;5023660;28;20427;-53
2021/11/20 05:24:54;;;;;;;28.70;18.07;;;;;;;;;;5022784;28;20415;-53
2021/11/20 05:27:20;;;;;;;28.43;17.83;;;;;;;;;;5023239;28;20414;-53
2021/11/20 05:32:24;;;;;;;35.30;18.50;;;;;;;;;;5023438;28;20450;-54
2021/11/20 05:34:50;;;;;;;32.53;20.13;;;;;;;;;;5022743;28;20404;-54
2021/11/20 05:37:16;;;;;;;33.50;19.33;;;;;;;;;;5022571;28;20463;-53
2021/11/20 05:39:42;;;;;;;27.47;19.00;;;;;;;;;;5022561;28;20415;-54
2021/11/20 05:42:08;;;;;;;31.63;19.60;;;;;;;;;;5023348;28;20403;-54
2021/11/20 05:44:34;;;;;;;33.10;19.23;;;;;;;;;;5021999;28;20403;-52
2021/11/20 05:47:00;;;;;;;32.70;18.73;;;;;;;;;;5021988;28;20789;-53
2021/11/20 05:49:28;;;;;;;30.37;19.00;;;;;;;;;;5022522;28;20403;-53
2021/11/20 05:51:54;;;;;;;31.27;17.97;;;;;;;;;;5022654;28;20471;-53
2021/11/20 05:54:20;;;;;;;36.33;19.47;;;;;;;;;;5023179;28;20400;-53
2021/11/20 05:56:46;;;;;;;27.67;17.40;;;;;;;;;;5022505;28;20508;-53
2021/11/20 05:59:13;;;;;;;38.80;19.17;;;;;;;;;;5022892;28;20400;-53
2021/11/20 06:01:39;;;;;;;36.03;19.10;;;;;;;;;;5022979;28;20415;-53
2021/11/20 06:04:05;;;;;;;29.53;18.20;;;;;;;;;;5023249;28;20768;-53
2021/11/20 06:06:31;;;;;;;29.40;18.57;;;;;;;;;;5023843;28;20407;-53
2021/11/20 06:08:57;;;;;;;28.90;18.30;;;;;;;;;;5023488;28;21256;-52
2021/11/20 06:11:23;;;;;;;41.30;19.90;;;;;;;;;;5023364;28;20446;-54
2021/11/20 06:13:49;;;;;;;34.00;18.43;;;;;;;;;;5023279;28;20431;-53
2021/11/20 06:16:15;;;;;;;38.67;19.33;;;;;;;;;;5022021;28;20457;-53
2021/11/20 06:18:41;;;;;;;32.53;19.80;;;;;;;;;;5022316;28;20411;-53
2021/11/20 06:21:08;;;;;;;30.10;17.93;;;;;;;;;;5021841;28;20467;-53
2021/11/20 06:23:34;;;;;;;35.40;19.53;;;;;;;;;;5021801;28;20490;-54
2021/11/20 06:26:01;;;;;;;32.83;20.10;;;;;;;;;;5022839;28;20592;-53
2021/11/20 06:28:27;;;;;;;33.80;18.40;;;;;;;;;;5022546;28;20400;-53
2021/11/20 06:30:53;;;;;;;33.77;20.43;;;;;;;;;;5021814;28;20459;-53
2021/11/20 06:33:19;;;;;;;36.83;21.23;;;;;;;;;;5022052;28;20409;-53
2021/11/20 06:35:45;;;;;;;40.33;21.40;;;;;;;;;;5022389;28;20419;-53
2021/11/20 06:38:12;;;;;;;37.00;20.80;;;;;;;;;;5022150;28;20467;-53
2021/11/20 06:40:42;;;;;;;40.87;21.63;;;;;;;;;;5023162;28;20797;-54
2021/11/20 06:43:10;;;;;;;33.90;20.33;;;;;;;;;;5022553;28;20441;-54
2021/11/20 06:45:38;;;;;;;41.57;20.67;;;;;;;;;;5023113;28;20407;-54
2021/11/20 06:48:05;;;;;;;36.73;21.50;;;;;;;;;;5022683;28;20437;-53
2021/11/20 06:50:32;;;;;;;33.93;20.97;;;;;;;;;;5022453;28;20487;-53
2021/11/20 06:52:58;;;;;;;40.70;21.67;;;;;;;;;;5022115;28;20419;-52
2021/11/20 06:55:24;;;;;;;44.87;22.23;;;;;;;;;;5020571;28;20412;-54
2021/11/20 06:57:54;;;;;;;41.10;23.37;;;;;;;;;;5019439;28;21144;-53
2021/11/20 07:00:26;;;;;;;41.97;21.00;;;;;;;;;;5020066;28;20434;-54
2021/11/20 07:03:13;;;;;;;37.63;21.60;;;;;;;;;;5019926;28;20400;-53
2021/11/20 07:05:44;;;;;;;36.47;21.07;;;;;;;;;;5019732;28;20427;-54
2021/11/20 07:08:10;;;;;;;39.83;21.40;;;;;;;;;;5019806;28;20406;-54
2021/11/20 07:10:37;;;;;;;47.13;21.10;;;;;;;;;;5016118;28;20518;-54
2021/11/20 07:13:04;;;;;;;41.83;20.33;;;;;;;;;;5013811;28;20473;-52
2021/11/20 07:15:30;;;;;;;40.80;20.93;;;;;;;;;;5012713;28;20466;-51
2021/11/20 07:17:56;;;;;;;40.70;21.83;;;;;;;;;;5012895;28;20963;-52
2021/11/20 07:20:26;;;;;;;34.63;19.50;;;;;;;;;;5013194;28;20538;-54
2021/11/20 07:22:52;;;;;;;32.60;18.87;;;;;;;;;;5012707;28;20479;-54
2021/11/20 07:25:18;;;;;;;41.90;22.03;;;;;;;;;;5012570;28;20494;-54
2021/11/20 07:27:45;;;;;;;38.00;21.70;;;;;;;;;;5017701;28;20411;-53
2021/11/20 07:30:12;;;;;;;39.43;22.23;;;;;;;;;;5002518;28;20539;-53
2021/11/20 07:32:38;;;;;;;42.73;20.50;;;;;;;;;;5017438;28;20410;-53
2021/11/20 07:35:04;;;;;;;35.57;20.50;;;;;;;;;;5017526;28;20407;-53
2021/11/20 07:37:30;;;;;;;40.90;21.00;;;;;;;;;;5017409;28;20490;-53
2021/11/20 07:39:56;;;;;;;40.83;21.77;;;;;;;;;;5017455;28;20423;-52
2021/11/20 07:42:22;;;;;;;37.67;19.43;;;;;;;;;;5019656;28;20407;-53
2021/11/20 07:44:49;;;;;;;42.63;20.60;;;;;;;;;;5018305;28;20483;-53
2021/11/20 07:47:15;;;;;;;38.57;20.47;;;;;;;;;;5017952;28;20822;-53
2021/11/20 07:49:43;;;;;;;39.37;20.40;;;;;;;;;;5017512;28;20790;-53
2021/11/20 07:52:09;;;;;;;36.50;20.70;;;;;;;;;;5017655;28;20407;-54
2021/11/20 07:54:37;;;;;;;32.20;18.70;;;;;;;;;;5016754;28;20407;-53
2021/11/20 07:57:03;;;;;;;38.87;20.07;;;;;;;;;;5017066;28;20458;-53
2021/11/20 07:59:29;;;;;;;39.97;19.37;;;;;;;;;;5016787;28;20399;-54
2021/11/20 08:01:55;;;;;;;36.53;21.03;;;;;;;;;;5016830;28;20410;-53
2021/11/20 08:04:21;;;;;;;39.47;22.00;;;;;;;;;;5016035;28;20403;-53
2021/11/20 08:06:47;;;;;;;36.97;20.23;;;;;;;;;;5016552;28;20403;-53
2021/11/20 08:09:13;;;;;;;36.97;20.00;;;;;;;;;;5016480;28;20419;-53
2021/11/20 08:11:40;;;;;;;41.07;21.00;;;;;;;;;;5016830;28;20423;-53
2021/11/20 08:14:07;;;;;;;47.27;20.70;;;;;;;;;;5016336;28;20423;-54
2021/11/20 08:16:34;;;;;;;35.77;18.70;;;;;;;;;;5016618;28;20458;-54
2021/11/20 08:19:00;;;;;;;37.37;21.27;;;;;;;;;;5016119;28;20403;-53
2021/11/20 08:21:27;;;;;;;43.33;21.07;;;;;;;;;;5016258;28;20446;-53
2021/11/20 08:23:53;;;;;;;37.10;20.40;;;;;;;;;;5016393;28;20399;-54
2021/11/20 08:26:21;;;;;;;37.57;21.20;;;;;;;;;;5016053;28;20405;-54
2021/11/20 08:28:47;;;;;;;34.00;19.70;;;;;;;;;;5016255;28;20435;-54
2021/11/20 08:31:13;;;;;;;33.17;19.37;;;;;;;;;;5016321;28;20430;-53
2021/11/20 08:33:40;;;;;;;41.20;20.90;;;;;;;;;;5015879;28;20795;-53
2021/11/20 08:36:09;;;;;;;38.03;21.60;;;;;;;;;;5015616;28;20493;-54
2021/11/20 08:38:35;;;;;;;35.50;19.53;;;;;;;;;;5015863;28;20918;-53
2021/11/20 08:41:01;;;;;;;32.93;20.40;;;;;;;;;;5016738;28;20431;-53
2021/11/20 08:43:31;;;;;;;41.17;18.57;;;;;;;;;;5015270;28;20487;-53
2021/11/20 08:45:58;;;;;;;41.23;20.67;;;;;;;;;;5015468;28;20493;-53
2021/11/20 08:48:24;;;;;;;35.67;20.03;;;;;;;;;;5015591;28;20840;-53
2021/11/20 08:50:55;;;;;;;37.50;18.63;;;;;;;;;;5016043;28;20852;-53
2021/11/20 08:53:22;;;;;;;34.37;20.50;;;;;;;;;;5015145;28;20891;-53
2021/11/20 08:55:48;;;;;;;39.20;20.27;;;;;;;;;;5015512;28;20461;-53
2021/11/20 08:58:14;;;;;;;34.87;19.03;;;;;;;;;;5015213;28;20508;-53
2021/11/20 09:00:55;;;;;;;37.27;20.70;;;;;;;;;;5015232;28;20418;-53
2021/11/20 09:03:23;;;;;;;34.87;19.17;;;;;;;;;;5015210;28;20663;-53
2021/11/20 09:05:53;;;;;;;33.30;19.00;;;;;;;;;;5014553;28;20412;-54
2021/11/20 09:08:23;;;;;;;33.90;19.60;;;;;;;;;;5015479;28;20403;-54
2021/11/20 09:10:50;;;;;;;38.33;20.53;;;;;;;;;;5015296;28;20549;-53
2021/11/20 09:13:16;;;;;;;35.40;20.10;;;;;;;;;;5015203;28;20403;-53
2021/11/20 09:15:45;;;;;;;31.80;18.60;;;;;;;;;;5015095;28;20486;-53
2021/11/20 09:18:11;;;;;;;34.47;17.77;;;;;;;;;;5013773;28;20451;-54
2021/11/20 09:20:37;;;;;;;37.53;19.63;;;;;;;;;;5016714;28;20546;-54
2021/11/20 09:23:04;;;;;;;31.93;18.40;;;;;;;;;;5018341;28;20415;-53
2021/11/20 09:25:30;;;;;;;32.90;18.43;;;;;;;;;;5019044;28;20411;-53
2021/11/20 09:27:56;;;;;;;34.80;19.07;;;;;;;;;;5020954;28;20411;-53
2021/11/20 09:30:25;;;;;;;35.83;20.07;;;;;;;;;;5018955;28;20484;-53
2021/11/20 09:32:51;;;;;;;31.73;18.17;;;;;;;;;;5018923;28;20408;-53
2021/11/20 09:35:17;;;;;;;35.20;19.23;;;;;;;;;;5018637;28;20403;-54
2021/11/20 09:37:44;;;;;;;28.53;17.13;;;;;;;;;;5018667;28;20454;-54
2021/11/20 09:40:10;;;;;;;38.20;19.00;;;;;;;;;;5018807;28;20419;-53
2021/11/20 09:42:39;;;;;;;34.23;19.13;;;;;;;;;;5018285;28;20432;-53
2021/11/20 09:45:15;;;;;;;33.70;19.53;;;;;;;;;;5018566;28;20742;-53
2021/11/20 09:47:44;;;;;;;34.37;18.67;;;;;;;;;;5017622;28;20439;-53
2021/11/20 09:50:28;;;;;;;30.43;18.47;;;;;;;;;;5019200;28;20467;-53
2021/11/20 09:52:55;;;;;;;30.43;17.70;;;;;;;;;;5020711;28;20447;-53
2021/11/20 09:55:23;;;;;;;32.80;18.80;;;;;;;;;;5020842;28;20477;-54
2021/11/20 09:57:52;;;;;;;29.40;19.03;;;;;;;;;;5021109;28;20478;-53
2021/11/20 10:00:31;;;;;;;29.27;18.20;;;;;;;;;;5021237;28;20429;-53
2021/11/20 10:02:59;;;;;;;32.10;18.03;;;;;;;;;;5021272;28;20407;-53
2021/11/20 10:05:44;;;;;;;32.10;19.43;;;;;;;;;;5021672;28;20399;-54
2021/11/20 10:08:15;;;;;;;31.80;19.50;;;;;;;;;;5021567;28;20438;-53
2021/11/20 10:10:44;;;;;;;32.60;19.47;;;;;;;;;;5021593;28;20421;-52
2021/11/20 10:13:12;;;;;;;29.13;18.90;;;;;;;;;;5020931;28;20416;-53
2021/11/20 10:15:42;;;;;;;25.23;17.40;;;;;;;;;;5021319;28;20434;-53
2021/11/20 10:18:40;;;;;;;30.80;17.73;;;;;;;;;;5021955;28;20948;-52
2021/11/20 10:21:09;;;;;;;36.73;17.97;;;;;;;;;;4964557;28;20465;-52
2021/11/20 10:23:50;;;;;;;26.80;16.63;;;;;;;;;;5014310;28;20401;-52
2021/11/20 10:26:35;;;;;;;26.50;17.83;;;;;;;;;;5013856;28;20399;-52
2021/11/20 10:29:04;;;;;;;26.37;18.67;;;;;;;;;;5013881;28;20407;-51
2021/11/20 10:31:30;;;;;;;27.37;18.60;;;;;;;;;;5013583;28;20423;-51
2021/11/20 10:33:58;;;;;;;33.80;19.50;;;;;;;;;;5013727;28;20486;-52
2021/11/20 10:36:43;;;;;;;33.03;18.80;;;;;;;;;;5013320;28;20483;-51
2021/11/20 10:39:18;;;;;;;31.90;17.97;;;;;;;;;;5013648;28;20428;-51
2021/11/20 10:41:45;;;;;;;30.57;18.20;;;;;;;;;;5013485;28;20409;-51
2021/11/20 10:44:11;;;;;;;30.20;18.30;;;;;;;;;;5013504;28;20918;-51
2021/11/20 10:46:57;;;;;;;30.97;18.30;;;;;;;;;;5013248;28;20491;-51
2021/11/20 10:49:34;;;;;;;31.27;19.50;;;;;;;;;;4996644;28;20417;-51
2021/11/20 10:52:08;;;;;;;28.93;18.03;;;;;;;;;;5013386;28;20403;-51
2021/11/20 10:54:35;;;;;;;34.30;17.30;;;;;;;;;;5013089;28;20416;-51
2021/11/20 10:57:30;;;;;;;32.67;18.90;;;;;;;;;;5013161;28;20951;-52
2021/11/20 11:00:04;;;;;;;35.60;19.37;;;;;;;;;;4992232;28;20436;-52
2021/11/20 11:02:49;;;;;;;24.80;16.50;;;;;;;;;;5013151;28;20403;-51
2021/11/20 11:05:24;;;;;;;23.67;15.00;;;;;;;;;;5012992;28;20396;-52
2021/11/20 11:08:08;;;;;;;27.00;16.80;;;;;;;;;;5012839;28;20403;-52
2021/11/20 11:10:38;;;;;;;23.10;16.27;;;;;;;;;;5012906;28;20424;-52
2021/11/20 11:13:10;;;;;;;22.90;15.37;;;;;;;;;;5012840;28;20892;-52
2021/11/20 11:15:42;;;;;;;29.40;15.30;;;;;;;;;;5012830;28;20562;-51
2021/11/20 11:18:14;;;;;;;26.87;16.77;;;;;;;;;;5012649;28;20444;-52
2021/11/20 11:20:49;;;;;;;25.80;16.10;;;;;;;;;;5012764;28;20448;-51
2021/11/20 11:23:15;;;;;;;22.30;15.27;;;;;;;;;;5012850;28;20453;-54
2021/11/20 11:25:46;;;;;;;24.60;15.10;;;;;;;;;;5012726;28;20436;-51
2021/11/20 11:28:15;;;;;;;27.03;15.47;;;;;;;;;;5005187;28;20428;-52
2021/11/20 11:30:51;;;;;;;27.10;16.27;;;;;;;;;;5012567;28;20521;-52
2021/11/20 11:33:17;;;;;;;31.03;15.90;;;;;;;;;;5012656;28;20394;-51
2021/11/20 11:35:49;;;;;;;22.70;13.97;;;;;;;;;;5012611;28;20407;-52
2021/11/20 11:38:47;;;;;;;23.43;13.33;;;;;;;;;;5012507;28;20458;-52
2021/11/20 11:41:21;;;;;;;20.07;13.47;;;;;;;;;;5012595;28;20427;-52
2021/11/20 11:44:03;;;;;;;21.87;14.13;;;;;;;;;;5012056;28;20406;-51
2021/11/20 11:46:47;;;;;;;25.00;15.17;;;;;;;;;;5012445;28;20922;-52
2021/11/20 11:49:32;;;;;;;20.63;13.80;;;;;;;;;;5012474;28;20770;-52
2021/11/20 11:52:03;;;;;;;20.97;15.00;;;;;;;;;;5012492;28;20766;-52
2021/11/20 11:54:38;;;;;;;20.40;13.27;;;;;;;;;;5010960;28;20495;-52
2021/11/20 11:57:19;;;;;;;22.00;13.80;;;;;;;;;;5012289;28;20459;-52
2021/11/20 12:00:04;;;;;;;19.23;13.63;;;;;;;;;;5012196;28;20430;-52
2021/11/20 12:02:36;;;;;;;17.83;12.93;;;;;;;;;;5012329;28;20429;-52
2021/11/20 12:05:21;;;;;;;17.33;12.67;;;;;;;;;;5012230;28;20400;-52
2021/11/20 12:07:58;;;;;;;17.27;13.00;;;;;;;;;;5011935;28;20410;-52
2021/11/20 12:10:24;;;;;;;18.10;13.07;;;;;;;;;;5012129;28;20419;-52
2021/11/20 12:13:04;;;;;;;19.57;12.60;;;;;;;;;;5012134;28;20485;-52
2021/11/20 12:15:38;;;;;;;16.10;11.83;;;;;;;;;;5012068;28;20407;-52
2021/11/20 12:18:03;;;;;;;16.20;12.03;;;;;;;;;;5012022;28;20466;-52
2021/11/20 12:20:39;;;;;;;18.30;11.73;;;;;;;;;;5011925;28;20439;-52
2021/11/20 12:23:26;;;;;;;16.60;12.23;;;;;;;;;;5011945;28;20479;-53
2021/11/20 12:25:53;;;;;;;16.37;12.27;;;;;;;;;;4994665;28;20832;-51
2021/11/20 12:28:28;;;;;;;15.43;11.37;;;;;;;;;;5011984;28;20455;-52
2021/11/20 12:31:02;;;;;;;14.37;11.53;;;;;;;;;;5011943;28;20426;-52
2021/11/20 12:33:47;;;;;;;14.87;10.70;;;;;;;;;;5011804;28;20829;-52
2021/11/20 12:36:19;;;;;;;16.47;12.10;;;;;;;;;;5011639;28;20400;-51
2021/11/20 12:39:04;;;;;;;17.10;11.80;;;;;;;;;;5011755;28;20399;-51
2021/11/20 12:41:45;;;;;;;16.63;12.10;;;;;;;;;;5011802;28;20511;-53
2021/11/20 12:44:26;;;;;;;14.53;11.10;;;;;;;;;;5011777;28;20391;-52
2021/11/20 12:47:08;;;;;;;16.50;10.70;;;;;;;;;;5011974;28;20769;-52
2021/11/20 12:49:37;;;;;;;11.80;10.20;;;;;;;;;;5011749;28;20427;-52
2021/11/20 12:52:03;;;;;;;15.00;11.10;;;;;;;;;;5011643;28;20407;-51
2021/11/20 12:54:29;;;;;;;13.70;11.77;;;;;;;;;;5011611;28;20814;-51
2021/11/20 12:57:13;;;;;;;15.43;10.20;;;;;;;;;;5015396;28;20452;-52
2021/11/20 12:59:43;;;;;;;15.80;11.53;;;;;;;;;;5015436;28;20529;-52
2021/11/20 13:02:23;;;;;;;15.70;11.47;;;;;;;;;;5015555;28;20459;-53
2021/11/20 13:04:50;;;;;;;14.80;10.90;;;;;;;;;;5013931;28;20411;-51
2021/11/20 13:07:22;;;;;;;16.67;11.43;;;;;;;;;;5015357;28;20403;-52
2021/11/20 13:09:51;;;;;;;15.00;11.40;;;;;;;;;;5015006;28;20441;-51
2021/11/20 13:12:24;;;;;;;13.30;11.37;;;;;;;;;;5015310;28;20440;-51
2021/11/20 13:15:09;;;;;;;19.13;10.90;;;;;;;;;;5014803;28;20412;-51
2021/11/20 13:18:11;;;;;;;16.53;11.20;;;;;;;;;;5015167;28;20545;-51
2021/11/20 13:20:43;;;;;;;15.90;11.37;;;;;;;;;;4915953;29;20514;-51
2021/11/20 13:23:17;;;;;;;17.00;13.20;;;;;;;;;;4999374;28;20906;-52
2021/11/20 13:25:51;;;;;;;14.53;10.37;;;;;;;;;;5014789;28;20407;-52
2021/11/20 13:28:17;;;;;;;14.83;10.80;;;;;;;;;;4997363;28;20422;-51
2021/11/20 13:30:44;;;;;;;14.00;11.70;;;;;;;;;;5014665;28;20435;-52
2021/11/20 13:33:11;;;;;;;17.50;11.97;;;;;;;;;;5014903;28;20887;-51
2021/11/20 13:35:40;;;;;;;16.07;11.77;;;;;;;;;;5014485;28;20458;-52
2021/11/20 13:38:07;;;;;;;16.90;13.13;;;;;;;;;;5014917;28;20538;-52
2021/11/20 13:40:35;;;;;;;19.37;12.30;;;;;;;;;;5014411;28;20522;-51
2021/11/20 13:43:01;;;;;;;20.17;13.07;;;;;;;;;;5014492;28;20436;-51
2021/11/20 13:45:28;;;;;;;16.90;11.43;;;;;;;;;;5014305;28;20922;-51
2021/11/20 13:47:54;;;;;;;15.20;10.50;;;;;;;;;;5014588;28;20787;-51
2021/11/20 13:50:21;;;;;;;20.30;13.37;;;;;;;;;;5014317;28;20434;-51
2021/11/20 13:52:47;;;;;;;17.77;11.90;;;;;;;;;;5014415;28;20403;-52
2021/11/20 13:55:15;;;;;;;20.03;12.97;;;;;;;;;;5014050;28;20895;-52
2021/11/20 13:57:41;;;;;;;17.40;12.13;;;;;;;;;;5014087;28;20461;-53
2021/11/20 14:00:11;;;;;;;19.10;13.40;;;;;;;;;;5014254;28;20415;-51
2021/11/20 14:02:44;;;;;;;17.87;13.20;;;;;;;;;;5014318;28;20395;-51
2021/11/20 14:05:10;;;;;;;18.00;11.83;;;;;;;;;;5013941;28;20439;-51
2021/11/20 14:07:36;;;;;;;22.87;13.77;;;;;;;;;;5013794;28;20408;-52
2021/11/20 14:10:04;;;;;;;19.63;12.87;;;;;;;;;;5014152;28;20764;-52
2021/11/20 14:12:50;;;;;;;17.77;13.37;;;;;;;;;;5014093;28;21025;-53
2021/11/20 14:15:16;;;;;;;21.00;13.63;;;;;;;;;;5013718;28;20413;-52
2021/11/20 14:17:42;;;;;;;23.70;14.33;;;;;;;;;;5013854;28;20454;-54
2021/11/20 14:20:09;;;;;;;19.20;14.07;;;;;;;;;;5013810;28;20469;-51
2021/11/20 14:22:38;;;;;;;20.87;13.70;;;;;;;;;;5014084;28;20398;-52
2021/11/20 14:25:06;;;;;;;17.87;13.20;;;;;;;;;;5013734;28;20406;-52
2021/11/20 14:27:33;;;;;;;21.77;14.40;;;;;;;;;;5013925;28;20872;-51
2021/11/20 14:30:00;;;;;;;17.07;13.00;;;;;;;;;;5013576;28;20427;-52
2021/11/20 14:32:26;;;;;;;16.60;11.53;;;;;;;;;;5013868;28;20446;-52
2021/11/20 14:34:52;;;;;;;19.00;12.03;;;;;;;;;;5013425;28;20403;-51
2021/11/20 14:37:20;;;;;;;17.60;12.03;;;;;;;;;;5013988;28;20455;-51